Gibraltar, Gibraltar

12:44 PM CET on December 05, 2016 (GMT +0100)
Calle Oviedo | | Change Station

Elev 26 ft 36.17 °N, 5.35 °W | Updated 4 minutes ago

Rain
Rain
60.3 °F
Feels Like 60.3 °F
N
3.7
Wind Variable Wind from ENE
Gusts 6.8 mph

Today
High -- | Low -- °F
--% Chance of Precip.
Yesterday
High -- | Low -- °F
Precip. -- in
Pressure 29.92 in
Visibility 3.7 miles
Clouds Scattered Clouds 1000 ft
Mostly Cloudy 1600 ft
Few 2300 ft
Dew Point 60 °F
Humidity 100%
Rainfall Not available.
Snow Depth Not available.
8:17 AM 6:06 PM
Waxing Crescent, 31% visible
METAR GMTT 051130Z 19007KT 170V230 6000 RA SCT010 BKN016 FEW023CB 17/16 Q1013 NOSIG
Pressure 29.92 in
Visibility 3.7 miles
Clouds Scattered Clouds 1000 ft
Mostly Cloudy 1600 ft
Few 2300 ft
Dew Point 60 °F
Humidity 100%
Rainfall Not available.
Snow Depth Not available.
8:17 AM 6:06 PM
Waxing Crescent, 31% visible
METAR GMTT 051130Z 19007KT 170V230 6000 RA SCT010 BKN016 FEW023CB 17/16 Q1013 NOSIG

10-Day Weather Forecast

×

Almanac

Astronomy

Dec. 05, 2016 Rise Set
Actual Time
Civil Twilight
Nautical Twilight
Astronomical Twilight
Moon
Length of Visible Light
Length of Day
Tomorrow will be .
, % of the Moon is Illuminated

Today's Extremes

Country Highs Country Lows

Community

WunderPhotos

Upload Photos

1,955,777 photos uploaded!

WunderBlog® & News

Nearby

Air Quality

  Air Quality AQ Index Pollutant
Not available.

Snow Depth

Station Depth Elevation

Earthquake Activity

City Distance Mag. Time & Date
Minimum magnitude displayed is 2.5.

Coastal Water Temperatures

Place Temperature

Stations

Nearby Weather Stations

Station Location Temp. Windchill Dew Point Humidity Wind Precip. Elev Updated Type